Terminal Aerodrome Forecast
Issued by NWS

Current Version | Previous Version | Graphics & Text | Print | Product List | Glossary On
Versions: 1 2 3 4 5 6 7 8 9 10 11 12 13 14
000
FTUS41 KPBZ 151124
TAFMGW
TAF
KMGW 151124Z 1512/1612 00000KT P6SM OVC035
     FM151800 23010G16KT P6SM VCSH BKN040
     FM152200 25010KT P6SM BKN050=

USA.gov is the U.S. government's official web portal to all federal, state and local government web resources and services.